Time;durP1;ratioP1;P1;durP2;ratioP2;P2;SDS_P1;SDS_P2;PMS_P1;PMS_P2;Temp;Humidity;BMP_temperature;BMP_pressure;BME280_temperature;BME280_humidity;BME280_pressure;Samples;Min_cycle;Max_cycle;Signal;HPM_P1;HPM_P2
2020/12/15 00:02:21;;;;;;;3.38;2.00;;;9.90;99.90;;;;;;5023074;28;20192;-82
2020/12/15 00:04:47;;;;;;;2.13;1.52;;;9.90;99.90;;;;;;5023124;28;20226;-81
2020/12/15 00:07:14;;;;;;;2.10;2.00;;;9.90;99.90;;;;;;5024127;28;20204;-83
2020/12/15 00:09:41;;;;;;;1.75;1.63;;;10.00;99.90;;;;;;5025648;28;20196;-82
2020/12/15 00:12:07;;;;;;;3.05;2.00;;;10.00;99.90;;;;;;5024618;28;20216;-83
2020/12/15 00:14:33;;;;;;;2.30;2.10;;;9.90;99.90;;;;;;5025034;28;20280;-82
2020/12/15 00:17:01;;;;;;;2.88;1.80;;;9.90;99.90;;;;;;5023201;28;20192;-82
2020/12/15 00:19:27;;;;;;;3.28;1.90;;;9.80;99.90;;;;;;5016694;28;20202;-83
2020/12/15 00:21:54;;;;;;;2.20;1.77;;;9.70;99.90;;;;;;5019629;28;20194;-81
2020/12/15 00:24:21;;;;;;;3.00;2.17;;;9.70;99.90;;;;;;5021802;28;20228;-80
2020/12/15 00:26:49;;;;;;;2.50;1.83;;;9.60;99.90;;;;;;5022164;28;20570;-82
2020/12/15 00:29:17;;;;;;;2.08;1.83;;;9.50;99.90;;;;;;5022287;28;20201;-81
2020/12/15 00:31:44;;;;;;;2.25;1.70;;;9.60;99.90;;;;;;5021951;28;20336;-81
2020/12/15 00:34:10;;;;;;;2.13;1.92;;;9.60;99.90;;;;;;5022927;28;20203;-83
2020/12/15 00:36:36;;;;;;;2.00;1.58;;;9.60;99.90;;;;;;5021865;28;20609;-81
2020/12/15 00:39:03;;;;;;;4.70;1.80;;;9.70;99.90;;;;;;5022634;28;20201;-81
2020/12/15 00:41:30;;;;;;;2.15;1.67;;;9.70;99.90;;;;;;5022563;28;20200;-81
2020/12/15 00:43:56;;;;;;;1.75;1.65;;;9.70;99.90;;;;;;5021710;28;20199;-83
2020/12/15 00:46:23;;;;;;;2.03;1.92;;;9.70;99.90;;;;;;5024991;28;20217;-81
2020/12/15 00:48:49;;;;;;;5.22;2.15;;;9.60;99.90;;;;;;5022305;28;20215;-83
2020/12/15 00:51:16;;;;;;;2.40;2.00;;;9.50;99.90;;;;;;5022659;28;20612;-80
2020/12/15 00:53:43;;;;;;;1.98;1.88;;;9.40;99.90;;;;;;5022960;28;20200;-81
2020/12/15 00:56:09;;;;;;;2.38;1.98;;;9.30;99.90;;;;;;5022979;28;20213;-83
2020/12/15 00:58:37;;;;;;;1.83;1.40;;;9.30;99.90;;;;;;5023768;28;20213;-81
2020/12/15 01:01:05;;;;;;;3.47;1.80;;;9.30;99.90;;;;;;5022858;28;20193;-80
2020/12/15 01:03:31;;;;;;;4.35;2.80;;;9.30;99.90;;;;;;5023251;28;20195;-79
2020/12/15 01:05:59;;;;;;;2.38;2.17;;;9.20;99.90;;;;;;5022304;28;20224;-83
2020/12/15 01:08:25;;;;;;;2.35;2.15;;;9.10;99.90;;;;;;5022948;28;20200;-80
2020/12/15 01:10:52;;;;;;;7.38;2.05;;;9.00;99.90;;;;;;5022409;28;20194;-81
2020/12/15 01:13:18;;;;;;;3.20;2.05;;;8.90;99.90;;;;;;5022349;28;20211;-82
2020/12/15 01:15:46;;;;;;;4.78;2.22;;;8.80;99.90;;;;;;5026094;28;20212;-81
2020/12/15 01:18:12;;;;;;;3.40;3.10;;;8.60;99.90;;;;;;5022584;28;20200;-81
2020/12/15 01:20:38;;;;;;;5.78;2.00;;;8.40;99.90;;;;;;5022576;28;20207;-83
2020/12/15 01:23:05;;;;;;;3.60;2.95;;;8.40;99.90;;;;;;5022042;28;20192;-82
2020/12/15 01:25:32;;;;;;;2.70;2.50;;;8.30;99.90;;;;;;5021501;28;20240;-85
2020/12/15 01:27:58;;;;;;;2.78;2.53;;;8.20;99.90;;;;;;5022613;28;20697;-81
2020/12/15 01:30:25;;;;;;;3.28;2.22;;;8.10;99.90;;;;;;5022085;28;20206;-82
2020/12/15 01:32:52;;;;;;;2.70;2.50;;;8.00;99.90;;;;;;5022350;28;20283;-82
2020/12/15 01:35:19;;;;;;;2.78;2.55;;;7.90;99.90;;;;;;5021316;28;20578;-80
2020/12/15 01:37:45;;;;;;;4.20;2.88;;;7.90;99.90;;;;;;5021881;28;20310;-81
2020/12/15 01:40:12;;;;;;;2.53;2.20;;;7.90;99.90;;;;;;5022407;28;20199;-83
2020/12/15 01:42:39;;;;;;;3.33;2.67;;;7.80;99.90;;;;;;5022566;28;20198;-81
2020/12/15 01:45:07;;;;;;;2.33;2.15;;;7.80;99.90;;;;;;5024307;28;20230;-84
2020/12/15 01:47:33;;;;;;;2.60;2.35;;;7.80;99.90;;;;;;5021994;28;20204;-83
2020/12/15 01:50:01;;;;;;;3.70;3.13;;;7.70;99.90;;;;;;5022158;28;20193;-81
2020/12/15 01:52:29;;;;;;;2.72;2.53;;;7.70;99.90;;;;;;5022184;28;20196;-81
2020/12/15 01:54:56;;;;;;;2.80;2.42;;;7.70;99.90;;;;;;5022099;28;20223;-83
2020/12/15 01:57:23;;;;;;;5.15;3.13;;;7.70;99.90;;;;;;5022108;28;20203;-82
2020/12/15 01:59:49;;;;;;;5.55;3.10;;;7.60;99.90;;;;;;5021954;28;20207;-84
2020/12/15 02:02:19;;;;;;;3.05;2.75;;;7.60;99.90;;;;;;5021850;28;20222;-82
2020/12/15 02:04:46;;;;;;;3.03;2.75;;;7.60;99.90;;;;;;5021831;28;20225;-82
2020/12/15 02:07:13;;;;;;;2.35;2.15;;;7.60;99.90;;;;;;5022608;28;20192;-84
2020/12/15 02:09:40;;;;;;;3.67;3.20;;;7.60;99.90;;;;;;5021901;28;20242;-84
2020/12/15 02:12:06;;;;;;;5.80;3.75;;;7.60;99.90;;;;;;5021428;28;20700;-84
2020/12/15 02:14:32;;;;;;;3.35;3.05;;;7.60;99.90;;;;;;5023180;28;20204;-82
2020/12/15 02:16:59;;;;;;;2.88;2.67;;;7.60;99.90;;;;;;5023739;28;20215;-83
2020/12/15 02:19:25;;;;;;;3.30;3.00;;;7.60;99.90;;;;;;5022215;28;20207;-81
2020/12/15 02:21:56;;;;;;;4.50;3.20;;;7.50;99.90;;;;;;5021818;28;20207;-81
2020/12/15 02:24:25;;;;;;;4.90;2.78;;;7.60;99.90;;;;;;5022462;28;20605;-82
2020/12/15 02:26:52;;;;;;;5.20;3.17;;;7.60;99.90;;;;;;5022346;28;20223;-81
2020/12/15 02:29:19;;;;;;;3.42;3.17;;;7.60;99.90;;;;;;5025306;28;20201;-81
2020/12/15 02:31:45;;;;;;;3.10;2.78;;;7.60;99.90;;;;;;5031021;28;20692;-82
2020/12/15 02:34:12;;;;;;;3.00;2.70;;;7.60;99.90;;;;;;5032093;28;20208;-83
2020/12/15 02:36:38;;;;;;;5.93;3.15;;;7.60;99.90;;;;;;5032895;28;20279;-83
2020/12/15 02:39:07;;;;;;;3.78;2.83;;;7.60;99.90;;;;;;5031574;28;20202;-84
2020/12/15 02:41:34;;;;;;;2.63;2.42;;;7.60;99.90;;;;;;5033648;28;20206;-81
2020/12/15 02:44:01;;;;;;;6.22;3.13;;;7.60;99.90;;;;;;5032278;28;20200;-86
2020/12/15 02:46:28;;;;;;;4.70;3.50;;;7.60;99.90;;;;;;5044053;28;20230;-84
2020/12/15 02:48:55;;;;;;;3.05;2.75;;;7.70;99.90;;;;;;5033720;28;20200;-84
2020/12/15 02:51:22;;;;;;;3.38;3.08;;;7.70;99.90;;;;;;5032198;28;20204;-84
2020/12/15 02:53:48;;;;;;;3.45;2.92;;;7.70;99.90;;;;;;5032196;28;20271;-83
2020/12/15 02:56:23;;;;;;;4.55;3.10;;;7.70;99.90;;;;;;5030653;28;20212;-85
2020/12/15 02:58:50;;;;;;;4.25;3.85;;;7.70;99.90;;;;;;5031154;28;20203;-84
2020/12/15 03:01:16;;;;;;;3.63;3.15;;;7.80;99.90;;;;;;5028926;28;20204;-85
2020/12/15 03:03:44;;;;;;;4.28;3.22;;;7.70;99.90;;;;;;5028156;28;20269;-83
2020/12/15 03:06:11;;;;;;;3.28;2.85;;;7.80;99.90;;;;;;5026787;28;20223;-82
2020/12/15 03:08:37;;;;;;;2.75;2.55;;;7.80;99.90;;;;;;5027805;28;20212;-84
2020/12/15 03:11:05;;;;;;;4.35;3.95;;;7.80;99.90;;;;;;5027581;28;20226;-83
2020/12/15 03:13:32;;;;;;;3.47;3.17;;;7.80;99.90;;;;;;5027811;28;20210;-81
2020/12/15 03:15:58;;;;;;;3.42;2.90;;;7.80;99.90;;;;;;5029853;28;20216;-83
2020/12/15 03:18:25;;;;;;;5.20;3.00;;;7.80;99.90;;;;;;5027468;28;20209;-83
2020/12/15 03:20:52;;;;;;;6.93;4.60;;;7.80;99.90;;;;;;5027460;28;20199;-85
2020/12/15 03:23:21;;;;;;;4.13;3.70;;;7.80;99.90;;;;;;5026864;28;20207;-83
2020/12/15 03:25:52;;;;;;;4.15;3.55;;;7.80;99.90;;;;;;5026240;28;20220;-86
2020/12/15 03:28:19;;;;;;;3.85;3.55;;;7.80;99.90;;;;;;5027508;28;20244;-82
2020/12/15 03:30:46;;;;;;;5.90;3.75;;;7.80;99.90;;;;;;5026109;28;20201;-82
2020/12/15 03:33:12;;;;;;;3.42;3.13;;;7.80;99.90;;;;;;5026544;28;20197;-84
2020/12/15 03:35:38;;;;;;;22.02;3.85;;;7.80;99.90;;;;;;5025631;28;20215;-80
2020/12/15 03:38:05;;;;;;;10.02;3.22;;;7.80;99.90;;;;;;5026787;28;20196;-82
2020/12/15 03:40:31;;;;;;;5.28;3.88;;;7.80;99.90;;;;;;5027977;28;20200;-82
2020/12/15 03:42:57;;;;;;;19.10;4.13;;;7.80;99.90;;;;;;5027745;28;20678;-83
2020/12/15 03:45:23;;;;;;;3.80;3.40;;;7.80;99.90;;;;;;5031107;28;20220;-82
2020/12/15 03:47:53;;;;;;;3.40;3.10;;;7.80;99.90;;;;;;5027807;28;20188;-83
2020/12/15 03:50:20;;;;;;;3.60;3.28;;;7.80;99.90;;;;;;5026959;28;20199;-84
2020/12/15 03:52:46;;;;;;;4.60;3.33;;;7.80;99.90;;;;;;5027573;28;20192;-82
2020/12/15 03:55:13;;;;;;;5.07;4.22;;;7.80;99.90;;;;;;5026457;28;20213;-83
2020/12/15 03:57:39;;;;;;;35.60;4.70;;;7.80;99.90;;;;;;5027280;28;20212;-84
2020/12/15 04:00:06;;;;;;;5.00;3.60;;;7.80;99.90;;;;;;5028244;28;20198;-83
2020/12/15 04:02:32;;;;;;;7.32;4.13;;;7.80;99.90;;;;;;5027028;28;20218;-83
2020/12/15 04:04:59;;;;;;;7.65;4.00;;;7.80;99.90;;;;;;5027555;28;20226;-82
2020/12/15 04:07:25;;;;;;;6.60;4.10;;;7.90;99.90;;;;;;5025830;28;20231;-81
2020/12/15 04:09:51;;;;;;;4.10;3.70;;;7.90;99.90;;;;;;5025799;28;20204;-82
2020/12/15 04:12:18;;;;;;;3.90;3.38;;;7.90;99.90;;;;;;5025560;28;20250;-82
2020/12/15 04:14:44;;;;;;;6.10;3.75;;;7.90;99.90;;;;;;5027170;28;20202;-81
2020/12/15 04:17:11;;;;;;;6.72;3.53;;;7.90;99.90;;;;;;5025639;28;20189;-80
2020/12/15 04:19:37;;;;;;;3.70;3.40;;;7.90;99.90;;;;;;5024711;28;20295;-82
2020/12/15 04:22:05;;;;;;;6.50;3.90;;;7.90;99.90;;;;;;5024487;28;20281;-81
2020/12/15 04:24:32;;;;;;;3.85;3.55;;;8.00;99.90;;;;;;5024269;28;20204;-80
2020/12/15 04:26:59;;;;;;;4.75;3.58;;;8.00;99.90;;;;;;5024522;28;20200;-80
2020/12/15 04:29:25;;;;;;;7.45;4.57;;;8.00;99.90;;;;;;5025552;28;20192;-79
2020/12/15 04:31:52;;;;;;;6.00;3.95;;;8.00;99.90;;;;;;5025301;28;20261;-82
2020/12/15 04:34:18;;;;;;;6.68;3.97;;;8.00;99.90;;;;;;5026305;28;20202;-80
2020/12/15 04:36:44;;;;;;;4.20;3.58;;;8.10;99.90;;;;;;5025850;28;20200;-80
2020/12/15 04:39:11;;;;;;;6.10;4.80;;;8.00;99.90;;;;;;5024277;28;20202;-80
2020/12/15 04:41:37;;;;;;;3.70;3.40;;;8.00;99.90;;;;;;5025181;28;20222;-81
2020/12/15 04:44:04;;;;;;;4.85;4.35;;;8.10;99.90;;;;;;5025289;28;20205;-80
2020/12/15 04:46:38;;;;;;;5.95;4.00;;;8.10;99.90;;;;;;5027486;28;20216;-82
2020/12/15 04:49:06;;;;;;;4.20;3.67;;;8.20;99.90;;;;;;5024351;28;20220;-80
2020/12/15 04:51:38;;;;;;;4.18;3.80;;;8.20;99.90;;;;;;5024342;28;20193;-81
2020/12/15 04:54:04;;;;;;;6.55;4.55;;;8.30;99.90;;;;;;5024280;28;20222;-81
2020/12/15 04:56:33;;;;;;;5.28;4.28;;;8.30;99.90;;;;;;5023976;28;20230;-81
2020/12/15 04:59:00;;;;;;;4.00;3.63;;;8.30;99.90;;;;;;5025044;28;20204;-82
2020/12/15 05:01:27;;;;;;;4.13;3.75;;;8.30;99.90;;;;;;5024854;28;20235;-80
2020/12/15 05:03:54;;;;;;;5.70;4.43;;;8.30;99.90;;;;;;5023886;28;20197;-80
2020/12/15 05:06:26;;;;;;;4.03;3.63;;;8.30;99.90;;;;;;5023678;28;20247;-79
2020/12/15 05:08:53;;;;;;;10.85;4.30;;;8.30;99.90;;;;;;5027407;28;20238;-80
2020/12/15 05:11:20;;;;;;;7.50;4.93;;;8.40;99.90;;;;;;5026983;28;20204;-83
2020/12/15 05:13:47;;;;;;;5.13;4.50;;;8.40;99.90;;;;;;5028336;28;20196;-81
2020/12/15 05:16:13;;;;;;;5.45;4.05;;;8.30;99.90;;;;;;5030758;28;20243;-81
2020/12/15 05:18:39;;;;;;;7.18;4.20;;;8.30;99.90;;;;;;5028139;28;20212;-81
2020/12/15 05:21:16;;;;;;;4.15;3.53;;;8.40;99.90;;;;;;5027192;28;20204;-80
2020/12/15 05:23:49;;;;;;;4.75;4.15;;;8.40;99.90;;;;;;5028504;28;20292;-81
2020/12/15 05:26:22;;;;;;;6.25;3.75;;;8.40;99.90;;;;;;5027062;28;20218;-81
2020/12/15 05:29:03;;;;;;;5.57;5.07;;;8.40;99.90;;;;;;5028683;28;20198;-81
2020/12/15 05:31:30;;;;;;;5.30;4.78;;;8.40;99.90;;;;;;5026502;28;20204;-80
2020/12/15 05:33:58;;;;;;;6.78;4.82;;;8.40;99.90;;;;;;5027119;28;20197;-80
2020/12/15 05:36:24;;;;;;;5.90;4.50;;;8.40;99.90;;;;;;5026534;28;20742;-81
2020/12/15 05:39:06;;;;;;;5.50;4.72;;;8.40;99.90;;;;;;5026343;28;20196;-80
2020/12/15 05:41:33;;;;;;;6.30;5.07;;;8.40;99.90;;;;;;5027376;28;20569;-81
2020/12/15 05:44:01;;;;;;;5.72;4.35;;;8.40;99.90;;;;;;5027853;28;20217;-80
2020/12/15 05:46:29;;;;;;;5.95;4.00;;;8.50;99.90;;;;;;5026686;28;20221;-81
2020/12/15 05:49:02;;;;;;;5.10;4.70;;;8.50;99.90;;;;;;5020525;28;20242;-80
2020/12/15 05:51:40;;;;;;;6.38;4.80;;;8.50;99.90;;;;;;5019134;28;20184;-79
2020/12/15 05:54:11;;;;;;;6.88;4.60;;;8.50;99.90;;;;;;5019517;28;20181;-81
2020/12/15 05:56:39;;;;;;;4.78;4.28;;;8.50;99.90;;;;;;5019882;28;20208;-81
2020/12/15 05:59:19;;;;;;;5.40;4.70;;;8.50;99.90;;;;;;5019817;28;20193;-81
2020/12/15 06:01:47;;;;;;;6.72;4.05;;;8.50;99.90;;;;;;5020633;28;20185;-82
2020/12/15 06:04:14;;;;;;;5.95;4.43;;;8.50;99.90;;;;;;5022795;28;20208;-80
2020/12/15 06:06:41;;;;;;;4.80;4.20;;;8.50;99.90;;;;;;5023627;28;20232;-81
2020/12/15 06:09:09;;;;;;;6.18;4.95;;;8.50;99.90;;;;;;5024164;28;20201;-80
2020/12/15 06:11:39;;;;;;;6.07;4.30;;;8.50;99.90;;;;;;5023455;28;20197;-79
2020/12/15 06:14:06;;;;;;;5.13;4.63;;;8.50;99.90;;;;;;5022169;28;20177;-80
2020/12/15 06:16:33;;;;;;;5.78;5.22;;;8.50;99.90;;;;;;5025140;28;20222;-81
2020/12/15 06:19:00;;;;;;;8.30;6.93;;;8.60;99.90;;;;;;5017831;28;20203;-80
2020/12/15 06:21:27;;;;;;;6.90;5.53;;;8.60;99.90;;;;;;5021746;28;20188;-79
2020/12/15 06:24:00;;;;;;;6.70;5.47;;;8.60;99.90;;;;;;5020947;28;20204;-79
2020/12/15 06:26:28;;;;;;;6.22;5.10;;;8.60;99.90;;;;;;5021667;28;20621;-81
2020/12/15 06:28:59;;;;;;;6.18;4.82;;;8.50;99.90;;;;;;5023701;28;20197;-82
2020/12/15 06:31:25;;;;;;;9.00;5.82;;;8.60;99.90;;;;;;5026153;28;20206;-81
2020/12/15 06:34:00;;;;;;;8.40;6.18;;;8.50;99.90;;;;;;5024627;28;20261;-82
2020/12/15 06:36:30;;;;;;;7.15;6.45;;;8.50;99.90;;;;;;5022694;28;20216;-81
2020/12/15 06:38:58;;;;;;;10.23;6.15;;;8.50;99.90;;;;;;5021453;28;20303;-81
2020/12/15 06:41:25;;;;;;;9.15;6.60;;;8.50;99.90;;;;;;5021953;28;20204;-81
2020/12/15 06:43:52;;;;;;;7.57;6.18;;;8.50;99.90;;;;;;5022056;28;20203;-81
2020/12/15 06:46:28;;;;;;;8.73;6.55;;;8.50;99.90;;;;;;5024991;28;20676;-80
2020/12/15 06:48:55;;;;;;;8.88;6.70;;;8.50;99.90;;;;;;5023058;28;20262;-79
2020/12/15 06:51:32;;;;;;;6.50;5.55;;;8.50;99.90;;;;;;5024034;28;20201;-80
2020/12/15 06:54:02;;;;;;;7.00;5.60;;;8.50;99.90;;;;;;5023804;28;20207;-81
2020/12/15 06:56:29;;;;;;;8.15;6.55;;;8.50;99.90;;;;;;5023073;28;20707;-83
2020/12/15 06:59:06;;;;;;;8.18;6.07;;;8.50;99.90;;;;;;5022787;28;20200;-80
2020/12/15 07:01:33;;;;;;;8.23;6.47;;;8.50;99.90;;;;;;5024015;28;20175;-82
2020/12/15 07:04:02;;;;;;;6.70;6.00;;;8.50;99.90;;;;;;5024670;28;20228;-84
2020/12/15 07:06:28;;;;;;;8.32;6.45;;;8.50;99.90;;;;;;5023349;28;20298;-84
2020/12/15 07:08:59;;;;;;;9.77;6.95;;;8.50;99.90;;;;;;5025170;28;20204;-82
2020/12/15 07:11:26;;;;;;;7.72;6.93;;;8.50;99.90;;;;;;5025324;28;20204;-83
2020/12/15 07:13:56;;;;;;;7.60;6.80;;;8.50;99.90;;;;;;5028044;28;20616;-82
2020/12/15 07:16:24;;;;;;;7.85;6.57;;;8.50;99.90;;;;;;5030551;28;20208;-77
2020/12/15 07:18:51;;;;;;;7.05;6.35;;;8.50;99.90;;;;;;5028270;28;20197;-81
2020/12/15 07:21:18;;;;;;;10.10;7.95;;;8.50;99.90;;;;;;5028155;28;20192;-83
2020/12/15 07:23:46;;;;;;;8.07;6.68;;;8.50;99.90;;;;;;5026749;28;20732;-81
2020/12/15 07:26:13;;;;;;;7.97;7.15;;;8.50;99.90;;;;;;5027651;28;20216;-80
2020/12/15 07:28:42;;;;;;;10.50;7.85;;;8.50;99.90;;;;;;5027348;28;20203;-81
2020/12/15 07:31:08;;;;;;;8.32;6.50;;;8.50;99.90;;;;;;5027316;28;20251;-81
2020/12/15 07:33:34;;;;;;;11.05;7.90;;;8.50;99.90;;;;;;5027294;28;20202;-78
2020/12/15 07:36:11;;;;;;;10.13;7.97;;;8.50;99.90;;;;;;5027030;28;20261;-79
2020/12/15 07:38:39;;;;;;;9.15;8.25;;;8.50;99.90;;;;;;5027184;28;20230;-81
2020/12/15 07:41:12;;;;;;;10.95;8.30;;;8.50;99.90;;;;;;5021051;28;20205;-81
2020/12/15 07:43:40;;;;;;;9.45;7.70;;;8.50;99.90;;;;;;5027933;28;20197;-82
2020/12/15 07:46:16;;;;;;;11.02;7.97;;;8.50;99.90;;;;;;5040020;28;20224;-83
2020/12/15 07:48:43;;;;;;;15.57;9.70;;;8.50;99.90;;;;;;5034125;28;20200;-81
2020/12/15 07:51:09;;;;;;;11.27;8.05;;;8.50;99.90;;;;;;5027049;28;20188;-82
2020/12/15 07:53:36;;;;;;;12.00;8.18;;;8.50;99.90;;;;;;5027888;28;20221;-81
2020/12/15 07:56:04;;;;;;;9.95;7.65;;;8.60;99.90;;;;;;5027560;28;20275;-82
2020/12/15 07:58:32;;;;;;;12.13;9.15;;;8.60;99.90;;;;;;5027343;28;20182;-82
2020/12/15 08:00:58;;;;;;;11.95;9.38;;;8.60;99.90;;;;;;5026794;28;20254;-82
2020/12/15 08:03:25;;;;;;;11.82;8.60;;;8.60;99.90;;;;;;5027456;28;20194;-81
2020/12/15 08:05:52;;;;;;;10.85;8.48;;;8.60;99.90;;;;;;5027048;28;20353;-80
2020/12/15 08:08:19;;;;;;;8.65;7.68;;;8.60;99.90;;;;;;5027382;28;20208;-81
2020/12/15 08:10:45;;;;;;;10.13;8.20;;;8.60;99.90;;;;;;5027245;28;20438;-81
2020/12/15 08:13:13;;;;;;;11.43;9.30;;;8.60;99.90;;;;;;5027381;28;20194;-82
2020/12/15 08:15:42;;;;;;;9.82;8.75;;;8.60;99.90;;;;;;5037836;28;20298;-82
2020/12/15 08:18:09;;;;;;;10.63;8.73;;;8.60;99.90;;;;;;5027677;28;20198;-81
2020/12/15 08:20:36;;;;;;;10.65;8.35;;;8.60;99.90;;;;;;5027037;28;20191;-81
2020/12/15 08:23:06;;;;;;;10.43;8.95;;;8.70;99.90;;;;;;5027686;28;20209;-81
2020/12/15 08:25:33;;;;;;;13.65;10.02;;;8.70;99.90;;;;;;5027309;28;20223;-81
2020/12/15 08:28:10;;;;;;;11.50;9.20;;;8.70;99.90;;;;;;5027079;28;20204;-80
2020/12/15 08:30:40;;;;;;;12.20;9.43;;;8.70;99.90;;;;;;5027799;28;20199;-81
2020/12/15 08:33:07;;;;;;;10.48;8.63;;;8.70;99.90;;;;;;5027357;28;20187;-81
2020/12/15 08:35:34;;;;;;;10.30;9.20;;;8.70;99.90;;;;;;5027321;28;20280;-82
2020/12/15 08:38:02;;;;;;;11.85;8.68;;;8.70;99.90;;;;;;5027950;28;20195;-81
2020/12/15 08:40:29;;;;;;;10.38;8.82;;;8.80;99.90;;;;;;5028326;28;20196;-79
2020/12/15 08:42:58;;;;;;;11.13;8.00;;;8.80;99.90;;;;;;5030308;28;20198;-82
2020/12/15 08:45:26;;;;;;;11.43;9.10;;;8.80;99.90;;;;;;5035336;28;20229;-80
2020/12/15 08:47:55;;;;;;;10.95;9.48;;;8.80;99.90;;;;;;5031495;28;20231;-81
2020/12/15 08:50:25;;;;;;;13.05;9.57;;;8.80;99.90;;;;;;5032280;28;20197;-81
2020/12/15 08:52:52;;;;;;;11.40;8.88;;;8.90;99.90;;;;;;5031425;28;20195;-81
2020/12/15 08:55:26;;;;;;;11.98;9.07;;;9.00;99.90;;;;;;5031030;28;20231;-82
2020/12/15 08:57:58;;;;;;;10.60;8.75;;;9.00;99.90;;;;;;5030063;28;20204;-82
2020/12/15 09:00:24;;;;;;;10.35;8.95;;;9.00;99.90;;;;;;5030965;28;20268;-82
2020/12/15 09:02:50;;;;;;;12.85;7.93;;;9.10;99.90;;;;;;5030830;28;20253;-80
2020/12/15 09:05:17;;;;;;;9.48;7.80;;;9.10;99.90;;;;;;5031516;28;20224;-81
2020/12/15 09:07:44;;;;;;;12.43;8.07;;;9.10;99.90;;;;;;5030345;28;20284;-82
2020/12/15 09:10:15;;;;;;;12.45;8.45;;;9.10;99.90;;;;;;5031097;28;20225;-82
2020/12/15 09:12:46;;;;;;;12.52;8.30;;;9.10;99.90;;;;;;5031122;28;20275;-81
2020/12/15 09:15:13;;;;;;;11.95;8.70;;;9.10;99.90;;;;;;5036895;28;20233;-82
2020/12/15 09:17:39;;;;;;;10.02;8.65;;;9.10;99.90;;;;;;5035405;28;20218;-80
2020/12/15 09:20:08;;;;;;;12.55;8.45;;;9.10;99.90;;;;;;5031465;28;20199;-81
2020/12/15 09:22:37;;;;;;;11.80;8.73;;;9.10;99.90;;;;;;5030920;28;20198;-82
2020/12/15 09:25:11;;;;;;;12.38;9.10;;;9.10;99.90;;;;;;5030670;28;20711;-81
2020/12/15 09:27:38;;;;;;;18.10;9.75;;;9.20;99.90;;;;;;5030110;28;20242;-80
2020/12/15 09:30:04;;;;;;;9.27;8.35;;;9.10;99.90;;;;;;5030147;28;20624;-81
2020/12/15 09:32:33;;;;;;;10.80;8.55;;;9.20;99.90;;;;;;5031302;28;20205;-82
2020/12/15 09:35:00;;;;;;;9.40;8.45;;;9.20;99.90;;;;;;5030473;28;20620;-81
2020/12/15 09:37:26;;;;;;;7.95;7.22;;;9.20;99.90;;;;;;5029323;28;20213;-78
2020/12/15 09:39:53;;;;;;;8.65;7.47;;;9.20;99.90;;;;;;5029808;28;20670;-80
2020/12/15 09:42:20;;;;;;;8.60;7.45;;;9.20;99.90;;;;;;5027645;28;20207;-81
2020/12/15 09:44:47;;;;;;;8.70;7.90;;;9.20;99.90;;;;;;5034112;28;20244;-83
2020/12/15 09:47:13;;;;;;;7.40;6.70;;;9.20;99.90;;;;;;5047641;28;20217;-84
2020/12/15 09:49:39;;;;;;;10.85;8.07;;;9.20;99.90;;;;;;5108603;22;20256;-79
2020/12/15 09:52:06;;;;;;;9.88;8.68;;;9.20;99.90;;;;;;5076337;28;20199;-80
2020/12/15 09:54:32;;;;;;;9.32;7.32;;;9.20;99.90;;;;;;5089328;28;20203;-78
2020/12/15 09:56:59;;;;;;;9.57;8.57;;;9.20;99.90;;;;;;5086090;28;20607;-81
2020/12/15 09:59:25;;;;;;;8.38;6.93;;;9.20;99.90;;;;;;5066105;28;20291;-81
2020/12/15 10:01:52;;;;;;;8.07;7.28;;;9.30;99.90;;;;;;5065641;28;20208;-81
2020/12/15 10:04:19;;;;;;;11.48;8.02;;;9.30;99.90;;;;;;5069751;28;20282;-81
2020/12/15 10:06:47;;;;;;;8.02;7.22;;;9.20;99.90;;;;;;5083389;28;20206;-81
2020/12/15 10:09:15;;;;;;;11.25;8.07;;;9.30;99.90;;;;;;5087922;28;20286;-82
2020/12/15 10:11:42;;;;;;;8.25;7.00;;;9.30;99.90;;;;;;5088036;28;20203;-80
2020/12/15 10:14:09;;;;;;;8.23;7.13;;;9.30;99.90;;;;;;5086791;28;20194;-81
2020/12/15 10:16:35;;;;;;;10.35;8.30;;;9.20;99.90;;;;;;5086827;28;20191;-82
2020/12/15 10:19:01;;;;;;;11.20;8.63;;;9.20;99.90;;;;;;5087561;28;20591;-79
2020/12/15 10:21:27;;;;;;;8.68;7.43;;;9.30;99.90;;;;;;5084673;28;20195;-81
2020/12/15 10:23:54;;;;;;;8.18;7.38;;;9.30;99.90;;;;;;5083596;28;20197;-79
2020/12/15 10:26:20;;;;;;;10.85;8.27;;;9.30;99.90;;;;;;5083303;28;20314;-80
2020/12/15 10:28:47;;;;;;;8.77;7.88;;;9.30;99.90;;;;;;5084148;28;20234;-81
2020/12/15 10:31:14;;;;;;;9.73;8.00;;;9.30;99.90;;;;;;5083249;28;20269;-80
2020/12/15 10:33:40;;;;;;;9.52;7.18;;;9.30;99.90;;;;;;5082494;28;20256;-79
2020/12/15 10:36:07;;;;;;;9.32;7.68;;;9.40;99.90;;;;;;5083988;28;20206;-79
2020/12/15 10:38:33;;;;;;;11.52;8.60;;;9.40;99.90;;;;;;5083730;28;20225;-81
2020/12/15 10:40:59;;;;;;;8.30;7.40;;;9.40;99.90;;;;;;5081667;28;20192;-82
2020/12/15 10:43:26;;;;;;;9.43;7.63;;;9.40;99.90;;;;;;5084550;28;20196;-82
2020/12/15 10:45:53;;;;;;;10.13;8.05;;;9.40;99.90;;;;;;5085189;28;20209;-78
2020/12/15 10:48:20;;;;;;;7.90;7.20;;;9.40;99.90;;;;;;5084391;28;20196;-81
2020/12/15 10:50:46;;;;;;;11.73;8.43;;;9.40;99.90;;;;;;5084848;28;20188;-82
2020/12/15 10:53:13;;;;;;;10.32;7.68;;;9.40;99.90;;;;;;5084719;28;20231;-78
2020/12/15 10:55:39;;;;;;;9.63;7.70;;;9.40;99.90;;;;;;5086216;28;20624;-82
2020/12/15 10:58:06;;;;;;;9.40;7.32;;;9.50;99.90;;;;;;5082875;28;20196;-79
2020/12/15 11:00:32;;;;;;;10.43;7.93;;;9.50;99.90;;;;;;5083316;28;20196;-79
2020/12/15 11:02:58;;;;;;;9.55;7.80;;;9.50;99.90;;;;;;5082458;28;20255;-80
2020/12/15 11:05:25;;;;;;;10.90;7.38;;;9.60;99.90;;;;;;5081457;28;20238;-80
2020/12/15 11:07:52;;;;;;;9.60;7.85;;;9.60;99.90;;;;;;5084328;28;20225;-78
2020/12/15 11:10:18;;;;;;;9.65;7.53;;;9.70;99.90;;;;;;5074626;28;20230;-78
2020/12/15 11:12:44;;;;;;;9.10;7.50;;;9.70;99.90;;;;;;5076660;28;20196;-79
2020/12/15 11:15:10;;;;;;;7.22;6.53;;;9.70;99.90;;;;;;5080582;28;20189;-78
2020/12/15 11:17:37;;;;;;;8.93;7.22;;;9.80;99.90;;;;;;5080942;28;20195;-79
2020/12/15 11:20:03;;;;;;;10.88;7.30;;;9.80;99.90;;;;;;5080679;28;20213;-79
2020/12/15 11:22:30;;;;;;;9.35;6.80;;;9.90;99.90;;;;;;5081687;28;20293;-80
2020/12/15 11:24:57;;;;;;;8.48;7.00;;;9.90;99.90;;;;;;5081833;28;20200;-80
2020/12/15 11:27:23;;;;;;;8.75;7.05;;;9.90;99.90;;;;;;5082134;28;20269;-79
2020/12/15 11:29:49;;;;;;;7.18;6.45;;;9.90;99.90;;;;;;5089426;28;20587;-81
2020/12/15 11:32:15;;;;;;;9.70;7.88;;;9.90;99.90;;;;;;5082524;28;20196;-80
2020/12/15 11:34:41;;;;;;;7.43;6.63;;;9.80;99.90;;;;;;5081061;28;20211;-80
2020/12/15 11:37:12;;;;;;;8.63;6.80;;;9.90;99.90;;;;;;5082225;28;20194;-80
2020/12/15 11:39:40;;;;;;;9.15;7.68;;;9.80;99.90;;;;;;5082858;28;20221;-80
2020/12/15 11:42:07;;;;;;;10.70;7.15;;;9.80;99.90;;;;;;5082052;28;20291;-79
2020/12/15 11:44:34;;;;;;;8.50;7.15;;;9.80;99.90;;;;;;5082338;28;20224;-80
2020/12/15 11:47:00;;;;;;;8.55;7.65;;;9.80;99.90;;;;;;5083313;28;20266;-80
2020/12/15 11:49:27;;;;;;;11.05;7.47;;;9.80;99.90;;;;;;5081874;28;20225;-80
2020/12/15 11:51:53;;;;;;;8.52;7.75;;;9.70;99.90;;;;;;5083054;28;20188;-79
2020/12/15 11:54:19;;;;;;;9.07;7.78;;;9.70;99.90;;;;;;5082042;28;20214;-78
2020/12/15 11:56:47;;;;;;;8.38;6.97;;;9.60;99.90;;;;;;5082471;28;20187;-78
2020/12/15 11:59:13;;;;;;;8.80;7.43;;;9.60;99.90;;;;;;5082455;28;20220;-80
2020/12/15 12:01:40;;;;;;;12.65;8.23;;;9.50;99.90;;;;;;5083110;28;20194;-79
2020/12/15 12:04:07;;;;;;;11.07;8.93;;;9.50;99.90;;;;;;5077803;28;20667;-78
2020/12/15 12:06:33;;;;;;;9.52;8.52;;;9.50;99.90;;;;;;5078135;28;20238;-79
2020/12/15 12:08:59;;;;;;;10.98;8.63;;;9.40;99.90;;;;;;5078013;28;20219;-79
2020/12/15 12:11:27;;;;;;;9.90;8.68;;;9.50;99.90;;;;;;5082875;28;20195;-78
2020/12/15 12:13:54;;;;;;;9.20;7.85;;;9.50;99.90;;;;;;5076015;28;20188;-79
2020/12/15 12:16:20;;;;;;;11.52;8.75;;;9.40;99.90;;;;;;5080341;28;20189;-79
2020/12/15 12:18:46;;;;;;;12.40;9.38;;;9.40;99.90;;;;;;5084028;28;20745;-78
2020/12/15 12:21:13;;;;;;;11.20;9.25;;;9.40;99.90;;;;;;5087262;28;20192;-78
2020/12/15 12:23:40;;;;;;;11.38;8.65;;;9.40;99.90;;;;;;5084720;28;20197;-80
2020/12/15 12:26:06;;;;;;;12.52;9.00;;;9.40;99.90;;;;;;5086829;28;20231;-80
2020/12/15 12:28:33;;;;;;;11.60;8.55;;;9.40;99.90;;;;;;5086508;28;20228;-79
2020/12/15 12:31:00;;;;;;;10.35;8.55;;;9.40;99.90;;;;;;5080964;28;20206;-79
2020/12/15 12:33:26;;;;;;;12.38;9.45;;;9.30;99.90;;;;;;5087997;28;20189;-80
2020/12/15 12:35:53;;;;;;;19.13;12.20;;;9.30;99.90;;;;;;5089382;28;20194;-79
2020/12/15 12:38:20;;;;;;;7.88;7.07;;;9.30;99.90;;;;;;5081867;28;20200;-79
2020/12/15 12:40:47;;;;;;;16.23;8.88;;;9.30;99.90;;;;;;5081107;28;20196;-80
2020/12/15 12:43:13;;;;;;;12.10;9.18;;;9.20;99.90;;;;;;5085807;28;20201;-76
2020/12/15 12:45:40;;;;;;;15.38;9.65;;;9.30;99.90;;;;;;5080401;28;20603;-80
2020/12/15 12:48:08;;;;;;;12.25;10.50;;;9.20;99.90;;;;;;5081893;28;20195;-79
2020/12/15 12:50:34;;;;;;;13.00;9.13;;;9.30;99.90;;;;;;5083682;28;20201;-80
2020/12/15 12:53:00;;;;;;;11.65;9.75;;;9.30;99.90;;;;;;5080179;28;20203;-79
2020/12/15 12:55:26;;;;;;;12.60;8.55;;;9.30;99.90;;;;;;5080606;28;20199;-78
2020/12/15 12:57:53;;;;;;;12.85;9.70;;;9.30;99.90;;;;;;5086515;28;20192;-81